CheckWX is a tool to help pilots better visualize weather data.  It is not intended as a substitute for an official pre-flight weather briefing.

16:54:36 UTC

YGEL TAF
Geraldton Airport
Australia
TAF YGEL 181030Z 1812/1906 10010KT CAVOK FM190100 07018G28KT CAVOK FM190400 07014KT CAVOK

Jun-18@
12:00 UTC

Jun-18 @ 12:00 UTC

Jun-19@
01:00 UTC

Jun-19 @ 01:00 UTC

TAF YGEL 181030Z 1812/1906 10010KT CAVOK
Wind
  • 100° at 10 KTS
Conditions
No significant weather
Cloud Levels
  • No significant clouds

Jun-19@
01:00 UTC

Jun-19 @ 01:00 UTC

Jun-19@
04:00 UTC

Jun-19 @ 04:00 UTC

FM190100 07018G28KT CAVOK

From

From Standard forecast or significant change

Wind
  • 070° at 18 KTS
  • {Gusting to 28 KTS
Conditions
No significant weather
Cloud Levels
  • No significant clouds

Jun-19@
04:00 UTC

Jun-19 @ 04:00 UTC

Jun-19@
06:00 UTC

Jun-19 @ 06:00 UTC

FM190400 07014KT CAVOK

From

From Standard forecast or significant change

Wind
  • 070° at 14 KTS
Conditions
No significant weather
Cloud Levels
  • No significant clouds